Terminal Aerodrome Forecast
Issued by NWS

Current Version | Previous Version | Text Only | Print | Product List | Glossary On
Versions: 1 2 3 4 5 6 7 8 9 10 11 12 13 14 15 16 17 18
000
FTUS43 KLSX 011100
TAFCPS
TAF
KCPS 011128Z 0112/0212 00000KT 4SM BR SCT100
      TEMPO 0112/0113 1/2SM FG
     FM011300 VRB04KT P6SM SCT250
     FM012000 07005KT P6SM VCTS BKN050CB
     FM020000 08004KT P6SM SCT250=

USA.gov is the U.S. government's official web portal to all federal, state and local government web resources and services.